EJA237 KSDL-KAPF
Flight info
| Callsign | EJA237 |
|---|---|
| Flight time | 3h 19m |
| Altitude | 39000 |
| Route | KATMN6 PHASE ELP JCT IAH LEV Y280 REMIS PIKKR7 |
| Aircraft | CL60/M-SBDE1E2E3FGHIJ1J4J5J7M3RWXYZ/LB1V1D1 |
Departure
| Time | 2026-04-24 07:50 |
|---|---|
| Airport | Scottsdale Airport (KSDL) |
Arrival
| Time | 2026-04-24 11:09 |
|---|---|
| Airport | Naples Municipal Airport (KAPF) |
| Time | Latitude | Longitude | Altitude | Speed | Heading |
|---|---|---|---|---|---|
| 2026-04-24 07:09 | 33.62246 | -111.91294 | 1471 ft | 0 kts | 313° |
| 2026-04-24 07:44 | 33.62254 | -111.91292 | 1471 ft | 2 kts | 59° |
| 2026-04-24 07:44 | 33.62262 | -111.91258 | 1472 ft | 4 kts | 70° |
| 2026-04-24 07:45 | 33.62272 | -111.91234 | 1473 ft | 3 kts | 54° |
| 2026-04-24 07:45 | 33.62260 | -111.91208 | 1473 ft | 5 kts | 117° |
| 2026-04-24 07:45 | 33.62282 | -111.91174 | 1474 ft | 6 kts | 43° |
| 2026-04-24 07:45 | 33.62317 | -111.91135 | 1475 ft | 7 kts | 44° |
| 2026-04-24 07:46 | 33.62355 | -111.91090 | 1477 ft | 8 kts | 44° |
| 2026-04-24 07:46 | 33.62397 | -111.91042 | 1479 ft | 8 kts | 43° |
| 2026-04-24 07:46 | 33.62440 | -111.90993 | 1480 ft | 8 kts | 44° |
| 2026-04-24 07:46 | 33.62488 | -111.90937 | 1483 ft | 10 kts | 43° |
| 2026-04-24 07:47 | 33.62543 | -111.90873 | 1485 ft | 11 kts | 44° |
| 2026-04-24 07:47 | 33.62606 | -111.90802 | 1487 ft | 13 kts | 43° |
| 2026-04-24 07:47 | 33.62675 | -111.90721 | 1490 ft | 14 kts | 43° |
| 2026-04-24 07:47 | 33.62753 | -111.90632 | 1491 ft | 17 kts | 44° |
| 2026-04-24 07:48 | 33.62842 | -111.90529 | 1494 ft | 17 kts | 44° |
| 2026-04-24 07:48 | 33.62928 | -111.90429 | 1498 ft | 16 kts | 44° |
| 2026-04-24 07:48 | 33.63012 | -111.90332 | 1501 ft | 16 kts | 43° |
| 2026-04-24 07:48 | 33.63095 | -111.90237 | 1505 ft | 16 kts | 44° |
| 2026-04-24 07:49 | 33.63138 | -111.90182 | 1507 ft | 5 kts | 72° |
| 2026-04-24 07:49 | 33.63123 | -111.90140 | 1507 ft | 6 kts | 145° |
| 2026-04-24 07:49 | 33.63092 | -111.90126 | 1507 ft | 3 kts | 207° |
| 2026-04-24 07:49 | 33.63080 | -111.90140 | 1506 ft | 1 kts | 223° |
| 2026-04-24 07:50 | 33.62866 | -111.90386 | 1498 ft | 92 kts | 224° |
| 2026-04-24 07:50 | 33.62207 | -111.91154 | 1534 ft | 163 kts | 224° |
| 2026-04-24 07:50 | 33.61375 | -111.92158 | 2189 ft | 181 kts | 230° |
| 2026-04-24 07:50 | 33.60860 | -111.93576 | 2885 ft | 201 kts | 270° |
| 2026-04-24 07:51 | 33.61259 | -111.95285 | 3498 ft | 229 kts | 309° |
| 2026-04-24 07:51 | 33.62555 | -111.96424 | 4438 ft | 244 kts | 338° |
| 2026-04-24 07:51 | 33.64173 | -111.97080 | 5450 ft | 256 kts | 343° |
| 2026-04-24 07:51 | 33.65940 | -111.97652 | 6338 ft | 271 kts | 344° |
| 2026-04-24 07:52 | 33.67804 | -111.98077 | 7238 ft | 281 kts | 356° |
| 2026-04-24 07:52 | 33.69730 | -111.97559 | 8031 ft | 292 kts | 26° |
| 2026-04-24 07:52 | 33.71241 | -111.95950 | 8897 ft | 300 kts | 55° |
| 2026-04-24 07:52 | 33.71968 | -111.93610 | 9774 ft | 307 kts | 84° |
| 2026-04-24 07:53 | 33.71858 | -111.91042 | 10628 ft | 315 kts | 98° |
| 2026-04-24 07:53 | 33.71534 | -111.88361 | 11217 ft | 338 kts | 99° |
| 2026-04-24 07:53 | 33.71176 | -111.85514 | 11980 ft | 352 kts | 99° |
| 2026-04-24 07:53 | 33.70642 | -111.82636 | 12874 ft | 357 kts | 114° |
| 2026-04-24 07:54 | 33.69326 | -111.80179 | 13731 ft | 356 kts | 139° |
| 2026-04-24 07:54 | 33.67381 | -111.78318 | 14578 ft | 359 kts | 149° |
| 2026-04-24 07:54 | 33.65344 | -111.76600 | 15422 ft | 364 kts | 153° |
| 2026-04-24 07:54 | 33.63093 | -111.75239 | 16300 ft | 362 kts | 162° |
| 2026-04-24 07:55 | 33.60786 | -111.74003 | 17129 ft | 368 kts | 162° |
| 2026-04-24 07:55 | 33.58452 | -111.72743 | 17927 ft | 373 kts | 162° |
| 2026-04-24 07:55 | 33.56054 | -111.71448 | 18715 ft | 378 kts | 162° |
| 2026-04-24 07:55 | 33.53650 | -111.70149 | 19436 ft | 383 kts | 161° |
| 2026-04-24 07:56 | 33.51224 | -111.68835 | 20154 ft | 388 kts | 161° |
| 2026-04-24 07:56 | 33.48746 | -111.67495 | 20827 ft | 393 kts | 161° |
| 2026-04-24 07:56 | 33.46247 | -111.66142 | 21494 ft | 398 kts | 161° |
| 2026-04-24 07:56 | 33.43708 | -111.64767 | 22170 ft | 402 kts | 161° |
| 2026-04-24 07:57 | 33.41124 | -111.63368 | 22791 ft | 407 kts | 161° |
| 2026-04-24 07:57 | 33.38501 | -111.61949 | 23424 ft | 411 kts | 161° |
| 2026-04-24 07:57 | 33.35889 | -111.60535 | 24081 ft | 415 kts | 161° |
| 2026-04-24 07:57 | 33.33260 | -111.59113 | 24700 ft | 419 kts | 162° |
| 2026-04-24 07:58 | 33.30611 | -111.57680 | 25294 ft | 422 kts | 162° |
| 2026-04-24 07:58 | 33.27896 | -111.56213 | 25884 ft | 425 kts | 162° |
| 2026-04-24 07:58 | 33.25212 | -111.54763 | 26405 ft | 430 kts | 162° |
| 2026-04-24 07:58 | 33.22461 | -111.53278 | 26906 ft | 434 kts | 162° |
| 2026-04-24 07:59 | 33.19701 | -111.51789 | 27427 ft | 437 kts | 162° |
| 2026-04-24 07:59 | 33.16921 | -111.50289 | 27925 ft | 440 kts | 162° |
| 2026-04-24 07:59 | 33.14142 | -111.48791 | 28392 ft | 443 kts | 162° |
| 2026-04-24 07:59 | 33.11304 | -111.47262 | 28857 ft | 446 kts | 162° |
| 2026-04-24 08:00 | 33.08568 | -111.45506 | 29293 ft | 458 kts | 152° |
| 2026-04-24 08:00 | 33.06124 | -111.42986 | 29714 ft | 472 kts | 136° |
| 2026-04-24 08:00 | 33.04169 | -111.39814 | 30169 ft | 479 kts | 127° |
| 2026-04-24 08:00 | 33.02374 | -111.36503 | 30594 ft | 480 kts | 127° |
| 2026-04-24 08:01 | 33.00559 | -111.33176 | 31062 ft | 480 kts | 128° |
| 2026-04-24 08:01 | 32.98739 | -111.29845 | 31457 ft | 481 kts | 129° |
| 2026-04-24 08:01 | 32.96910 | -111.26503 | 31828 ft | 482 kts | 129° |
| 2026-04-24 08:01 | 32.95071 | -111.23149 | 32172 ft | 484 kts | 129° |
| 2026-04-24 08:02 | 32.93232 | -111.19797 | 32536 ft | 485 kts | 129° |
| 2026-04-24 08:02 | 32.91386 | -111.16438 | 32851 ft | 487 kts | 129° |
| 2026-04-24 08:02 | 32.89537 | -111.13076 | 33184 ft | 488 kts | 129° |
| 2026-04-24 08:02 | 32.87679 | -111.09701 | 33504 ft | 489 kts | 129° |
| 2026-04-24 08:03 | 32.85792 | -111.06279 | 33858 ft | 490 kts | 130° |
| 2026-04-24 08:03 | 32.83938 | -111.02917 | 34250 ft | 490 kts | 130° |
| 2026-04-24 08:03 | 32.82085 | -110.99563 | 34676 ft | 488 kts | 130° |
| 2026-04-24 08:03 | 32.80206 | -110.96163 | 35038 ft | 488 kts | 130° |
| 2026-04-24 08:04 | 32.78360 | -110.92827 | 35400 ft | 488 kts | 130° |
| 2026-04-24 08:04 | 32.76503 | -110.89475 | 35752 ft | 487 kts | 130° |
| 2026-04-24 08:04 | 32.74622 | -110.86084 | 36071 ft | 487 kts | 130° |
| 2026-04-24 08:04 | 32.72768 | -110.82746 | 36374 ft | 487 kts | 131° |
| 2026-04-24 08:05 | 32.70922 | -110.79423 | 36687 ft | 487 kts | 131° |
| 2026-04-24 08:05 | 32.69050 | -110.76057 | 36988 ft | 487 kts | 131° |
| 2026-04-24 08:05 | 32.67181 | -110.72694 | 37242 ft | 488 kts | 130° |
| 2026-04-24 08:05 | 32.65480 | -110.69228 | 37454 ft | 495 kts | 123° |
| 2026-04-24 08:06 | 32.64075 | -110.65438 | 37722 ft | 501 kts | 115° |
| 2026-04-24 08:06 | 32.63036 | -110.61481 | 37916 ft | 507 kts | 109° |
| 2026-04-24 08:06 | 32.62160 | -110.57457 | 38190 ft | 507 kts | 109° |
| 2026-04-24 08:06 | 32.61281 | -110.53437 | 38416 ft | 507 kts | 108° |
| 2026-04-24 08:07 | 32.60390 | -110.49377 | 38659 ft | 507 kts | 109° |
| 2026-04-24 08:07 | 32.59506 | -110.45362 | 38911 ft | 506 kts | 109° |
| 2026-04-24 08:07 | 32.58614 | -110.41317 | 39036 ft | 509 kts | 109° |
| 2026-04-24 08:07 | 32.57716 | -110.37269 | 39031 ft | 514 kts | 109° |
| 2026-04-24 08:08 | 32.55880 | -110.29002 | 39073 ft | 521 kts | 109° |
| 2026-04-24 08:09 | 32.53089 | -110.16498 | 39085 ft | 532 kts | 109° |
| 2026-04-24 08:09 | 32.51177 | -110.07973 | 39079 ft | 539 kts | 110° |
| 2026-04-24 08:10 | 32.49242 | -109.99380 | 39066 ft | 545 kts | 110° |
| 2026-04-24 08:10 | 32.47277 | -109.90687 | 39079 ft | 550 kts | 109° |
| 2026-04-24 08:11 | 32.45290 | -109.81924 | 39096 ft | 555 kts | 109° |
| 2026-04-24 08:11 | 32.43461 | -109.72982 | 39116 ft | 562 kts | 103° |
| 2026-04-24 08:12 | 32.42319 | -109.63871 | 39092 ft | 564 kts | 101° |
| 2026-04-24 08:12 | 32.41162 | -109.54635 | 39068 ft | 565 kts | 101° |
| 2026-04-24 08:13 | 32.40004 | -109.45470 | 39068 ft | 564 kts | 101° |
| 2026-04-24 08:13 | 32.38840 | -109.36343 | 39069 ft | 563 kts | 101° |
| 2026-04-24 08:14 | 32.37662 | -109.27162 | 39067 ft | 563 kts | 102° |
| 2026-04-24 08:14 | 32.36482 | -109.18046 | 39078 ft | 564 kts | 101° |
| 2026-04-24 08:15 | 32.35039 | -109.08961 | 39077 ft | 564 kts | 105° |
| 2026-04-24 08:15 | 32.33413 | -108.99921 | 39077 ft | 565 kts | 105° |
| 2026-04-24 08:16 | 32.31780 | -108.90848 | 39082 ft | 565 kts | 105° |
| 2026-04-24 08:16 | 32.30151 | -108.81823 | 39089 ft | 565 kts | 106° |
| 2026-04-24 08:17 | 32.28502 | -108.72718 | 39092 ft | 566 kts | 105° |
| 2026-04-24 08:17 | 32.26857 | -108.63668 | 39085 ft | 566 kts | 105° |
| 2026-04-24 08:18 | 32.25202 | -108.54597 | 39080 ft | 566 kts | 106° |
| 2026-04-24 08:18 | 32.23548 | -108.45563 | 39094 ft | 565 kts | 105° |
| 2026-04-24 08:19 | 32.21884 | -108.36514 | 39099 ft | 565 kts | 106° |
| 2026-04-24 08:19 | 32.20214 | -108.27465 | 39096 ft | 565 kts | 105° |
| 2026-04-24 08:20 | 32.18530 | -108.18382 | 39099 ft | 566 kts | 105° |
| 2026-04-24 08:20 | 32.16848 | -108.09345 | 39094 ft | 567 kts | 105° |
| 2026-04-24 08:21 | 32.15156 | -108.00290 | 39079 ft | 567 kts | 105° |
| 2026-04-24 08:21 | 32.13455 | -107.91227 | 39088 ft | 567 kts | 105° |
| 2026-04-24 08:22 | 32.11741 | -107.82129 | 39052 ft | 567 kts | 105° |
| 2026-04-24 08:22 | 32.10032 | -107.73093 | 39062 ft | 568 kts | 107° |
| 2026-04-24 08:23 | 32.08305 | -107.64008 | 39064 ft | 568 kts | 107° |
| 2026-04-24 08:23 | 32.06574 | -107.54946 | 39058 ft | 568 kts | 105° |
| 2026-04-24 08:24 | 32.04836 | -107.45860 | 39071 ft | 569 kts | 107° |
| 2026-04-24 08:24 | 32.03081 | -107.36745 | 39046 ft | 569 kts | 106° |
| 2026-04-24 08:25 | 32.01335 | -107.27692 | 39067 ft | 568 kts | 108° |
| 2026-04-24 08:25 | 31.99585 | -107.18662 | 39054 ft | 568 kts | 107° |
| 2026-04-24 08:26 | 31.97818 | -107.09596 | 39061 ft | 569 kts | 107° |
| 2026-04-24 08:26 | 31.96054 | -107.00563 | 39063 ft | 569 kts | 106° |
| 2026-04-24 08:27 | 31.94271 | -106.91476 | 39057 ft | 570 kts | 107° |
| 2026-04-24 08:27 | 31.92489 | -106.82436 | 39058 ft | 569 kts | 107° |
| 2026-04-24 08:28 | 31.90695 | -106.73377 | 39017 ft | 571 kts | 108° |
| 2026-04-24 08:28 | 31.88888 | -106.64282 | 39013 ft | 572 kts | 107° |
| 2026-04-24 08:29 | 31.87073 | -106.55182 | 39048 ft | 572 kts | 106° |
| 2026-04-24 08:29 | 31.85243 | -106.46035 | 39020 ft | 572 kts | 107° |
| 2026-04-24 08:30 | 31.83425 | -106.36997 | 39022 ft | 573 kts | 107° |
| 2026-04-24 08:30 | 31.81591 | -106.27872 | 39014 ft | 572 kts | 106° |
| 2026-04-24 08:31 | 31.80087 | -106.18705 | 39032 ft | 574 kts | 103° |
| 2026-04-24 08:31 | 31.78590 | -106.09469 | 39063 ft | 574 kts | 104° |
| 2026-04-24 08:32 | 31.77099 | -106.00275 | 39077 ft | 575 kts | 103° |
| 2026-04-24 08:32 | 31.75596 | -105.91061 | 39091 ft | 576 kts | 104° |
| 2026-04-24 08:33 | 31.74082 | -105.81867 | 39089 ft | 576 kts | 104° |
| 2026-04-24 08:33 | 31.72557 | -105.72620 | 39098 ft | 576 kts | 103° |
| 2026-04-24 08:34 | 31.71027 | -105.63409 | 39081 ft | 575 kts | 104° |
| 2026-04-24 08:34 | 31.69493 | -105.54229 | 39066 ft | 575 kts | 103° |
| 2026-04-24 08:35 | 31.67959 | -105.45068 | 39062 ft | 576 kts | 103° |
| 2026-04-24 08:35 | 31.66409 | -105.35873 | 39058 ft | 576 kts | 103° |
| 2026-04-24 08:36 | 31.64846 | -105.26635 | 39032 ft | 574 kts | 105° |
| 2026-04-24 08:36 | 31.63293 | -105.17496 | 39045 ft | 573 kts | 103° |
| 2026-04-24 08:37 | 31.61729 | -105.08337 | 39058 ft | 574 kts | 104° |
| 2026-04-24 08:37 | 31.60156 | -104.99163 | 39051 ft | 575 kts | 104° |
| 2026-04-24 08:38 | 31.58576 | -104.90002 | 39055 ft | 574 kts | 104° |
| 2026-04-24 08:38 | 31.56995 | -104.80877 | 39054 ft | 574 kts | 104° |
| 2026-04-24 08:39 | 31.55399 | -104.71692 | 39006 ft | 574 kts | 104° |
| 2026-04-24 08:39 | 31.53807 | -104.62571 | 39049 ft | 573 kts | 104° |
| 2026-04-24 08:40 | 31.52205 | -104.53447 | 39019 ft | 574 kts | 103° |
| 2026-04-24 08:40 | 31.50602 | -104.44350 | 39036 ft | 573 kts | 104° |
| 2026-04-24 08:41 | 31.48978 | -104.35171 | 39011 ft | 574 kts | 103° |
| 2026-04-24 08:41 | 31.47358 | -104.26067 | 38983 ft | 572 kts | 105° |
| 2026-04-24 08:42 | 31.45737 | -104.16984 | 39001 ft | 572 kts | 104° |
| 2026-04-24 08:42 | 31.44097 | -104.07839 | 38982 ft | 572 kts | 104° |
| 2026-04-24 08:43 | 31.42467 | -103.98782 | 38974 ft | 572 kts | 104° |
| 2026-04-24 08:43 | 31.40823 | -103.89691 | 38957 ft | 572 kts | 103° |
| 2026-04-24 08:44 | 31.39173 | -103.80602 | 38955 ft | 572 kts | 103° |
| 2026-04-24 08:44 | 31.37513 | -103.71499 | 38971 ft | 571 kts | 103° |
| 2026-04-24 08:45 | 31.35859 | -103.62467 | 38947 ft | 572 kts | 104° |
| 2026-04-24 08:45 | 31.34190 | -103.53390 | 38935 ft | 571 kts | 105° |
| 2026-04-24 08:46 | 31.32520 | -103.44347 | 38945 ft | 570 kts | 104° |
| 2026-04-24 08:46 | 31.30842 | -103.35300 | 38938 ft | 571 kts | 104° |
| 2026-04-24 08:47 | 31.29157 | -103.26256 | 38951 ft | 569 kts | 105° |
| 2026-04-24 08:47 | 31.27469 | -103.17228 | 38917 ft | 570 kts | 105° |
| 2026-04-24 08:48 | 31.25771 | -103.08177 | 38935 ft | 571 kts | 105° |
| 2026-04-24 08:48 | 31.24068 | -102.99151 | 38915 ft | 572 kts | 104° |
| 2026-04-24 08:49 | 31.22349 | -102.90067 | 38920 ft | 572 kts | 105° |
| 2026-04-24 08:49 | 31.20631 | -102.81018 | 38907 ft | 572 kts | 105° |
| 2026-04-24 08:50 | 31.18902 | -102.71958 | 38909 ft | 571 kts | 104° |
| 2026-04-24 08:50 | 31.17178 | -102.62954 | 38906 ft | 571 kts | 105° |
| 2026-04-24 08:51 | 31.15434 | -102.53884 | 38902 ft | 572 kts | 105° |
| 2026-04-24 08:51 | 31.13687 | -102.44843 | 38893 ft | 572 kts | 104° |
| 2026-04-24 08:52 | 31.11936 | -102.35813 | 38899 ft | 573 kts | 105° |
| 2026-04-24 08:52 | 31.10171 | -102.26737 | 38897 ft | 572 kts | 105° |
| 2026-04-24 08:53 | 31.08416 | -102.17751 | 38893 ft | 572 kts | 105° |
| 2026-04-24 08:53 | 31.06640 | -102.08711 | 38889 ft | 573 kts | 105° |
| 2026-04-24 08:54 | 31.04855 | -101.99651 | 38887 ft | 573 kts | 104° |
| 2026-04-24 08:54 | 31.03076 | -101.90646 | 38882 ft | 572 kts | 104° |
| 2026-04-24 08:55 | 31.01281 | -101.81606 | 38903 ft | 572 kts | 105° |
| 2026-04-24 08:55 | 30.99488 | -101.72600 | 38882 ft | 572 kts | 105° |
| 2026-04-24 08:56 | 30.97692 | -101.63614 | 38906 ft | 571 kts | 105° |
| 2026-04-24 08:56 | 30.95890 | -101.54652 | 38885 ft | 570 kts | 105° |
| 2026-04-24 08:57 | 30.94076 | -101.45648 | 38890 ft | 570 kts | 105° |
| 2026-04-24 08:57 | 30.92262 | -101.36689 | 38882 ft | 569 kts | 105° |
| 2026-04-24 08:58 | 30.90446 | -101.27741 | 38885 ft | 567 kts | 105° |
| 2026-04-24 08:58 | 30.88641 | -101.18885 | 38890 ft | 566 kts | 105° |
| 2026-04-24 08:59 | 30.86821 | -101.10003 | 38890 ft | 566 kts | 105° |
| 2026-04-24 08:59 | 30.84987 | -101.01070 | 38892 ft | 565 kts | 105° |
| 2026-04-24 09:00 | 30.83159 | -100.92199 | 38884 ft | 565 kts | 105° |
| 2026-04-24 09:00 | 30.81324 | -100.83328 | 38888 ft | 565 kts | 105° |
| 2026-04-24 09:01 | 30.79493 | -100.74506 | 38880 ft | 564 kts | 105° |
| 2026-04-24 09:01 | 30.77650 | -100.65657 | 38886 ft | 564 kts | 105° |
| 2026-04-24 09:02 | 30.75793 | -100.56776 | 38882 ft | 565 kts | 105° |
| 2026-04-24 09:02 | 30.73945 | -100.47965 | 38884 ft | 564 kts | 105° |
| 2026-04-24 09:03 | 30.72072 | -100.39089 | 38881 ft | 564 kts | 105° |
| 2026-04-24 09:03 | 30.70214 | -100.30298 | 38890 ft | 563 kts | 105° |
| 2026-04-24 09:04 | 30.68333 | -100.21461 | 38888 ft | 564 kts | 106° |
| 2026-04-24 09:04 | 30.66456 | -100.12636 | 38891 ft | 564 kts | 105° |
| 2026-04-24 09:05 | 30.64563 | -100.03765 | 38892 ft | 565 kts | 106° |
| 2026-04-24 09:05 | 30.62668 | -99.94932 | 38889 ft | 566 kts | 106° |
| 2026-04-24 09:06 | 30.60767 | -99.86093 | 38875 ft | 566 kts | 105° |
| 2026-04-24 09:06 | 30.59196 | -99.77165 | 38870 ft | 567 kts | 98° |
| 2026-04-24 09:07 | 30.58102 | -99.68150 | 38868 ft | 567 kts | 98° |
| 2026-04-24 09:07 | 30.56387 | -99.54638 | 38855 ft | 566 kts | 98° |
| 2026-04-24 09:08 | 30.55241 | -99.45647 | 38858 ft | 566 kts | 98° |
| 2026-04-24 09:08 | 30.54076 | -99.36588 | 38861 ft | 566 kts | 98° |
| 2026-04-24 09:09 | 30.52917 | -99.27570 | 38856 ft | 565 kts | 98° |
| 2026-04-24 09:09 | 30.51750 | -99.18599 | 38862 ft | 566 kts | 99° |
| 2026-04-24 09:10 | 30.50568 | -99.09575 | 38849 ft | 566 kts | 99° |
| 2026-04-24 09:10 | 30.49390 | -99.00582 | 38851 ft | 567 kts | 98° |
| 2026-04-24 09:11 | 30.48198 | -98.91578 | 38837 ft | 566 kts | 99° |
| 2026-04-24 09:11 | 30.46993 | -98.82517 | 38830 ft | 567 kts | 98° |
| 2026-04-24 09:12 | 30.45798 | -98.73570 | 38830 ft | 567 kts | 99° |
| 2026-04-24 09:12 | 30.44584 | -98.64532 | 38835 ft | 567 kts | 98° |
| 2026-04-24 09:13 | 30.43368 | -98.55520 | 38835 ft | 567 kts | 98° |
| 2026-04-24 09:13 | 30.42147 | -98.46544 | 38840 ft | 567 kts | 98° |
| 2026-04-24 09:14 | 30.40917 | -98.37534 | 38839 ft | 567 kts | 98° |
| 2026-04-24 09:14 | 30.39679 | -98.28504 | 38839 ft | 566 kts | 98° |
| 2026-04-24 09:15 | 30.38443 | -98.19536 | 38824 ft | 566 kts | 98° |
| 2026-04-24 09:15 | 30.37191 | -98.10515 | 38837 ft | 566 kts | 99° |
| 2026-04-24 09:16 | 30.35946 | -98.01581 | 38837 ft | 567 kts | 98° |
| 2026-04-24 09:16 | 30.34684 | -97.92588 | 38838 ft | 567 kts | 99° |
| 2026-04-24 09:17 | 30.33410 | -97.83549 | 38828 ft | 567 kts | 99° |
| 2026-04-24 09:17 | 30.32142 | -97.74583 | 38826 ft | 566 kts | 99° |
| 2026-04-24 09:18 | 30.30864 | -97.65601 | 38826 ft | 566 kts | 99° |
| 2026-04-24 09:18 | 30.29589 | -97.56690 | 38825 ft | 565 kts | 98° |
| 2026-04-24 09:19 | 30.28304 | -97.47752 | 38826 ft | 565 kts | 98° |
| 2026-04-24 09:19 | 30.27006 | -97.38766 | 38823 ft | 564 kts | 98° |
| 2026-04-24 09:20 | 30.25707 | -97.29833 | 38817 ft | 563 kts | 99° |
| 2026-04-24 09:20 | 30.24405 | -97.20955 | 38821 ft | 563 kts | 99° |
| 2026-04-24 09:21 | 30.23099 | -97.12009 | 38834 ft | 563 kts | 99° |
| 2026-04-24 09:21 | 30.21791 | -97.03120 | 38844 ft | 563 kts | 98° |
| 2026-04-24 09:22 | 30.20468 | -96.94202 | 38850 ft | 563 kts | 98° |
| 2026-04-24 09:22 | 30.19143 | -96.85285 | 38841 ft | 562 kts | 98° |
| 2026-04-24 09:23 | 30.17811 | -96.76369 | 38833 ft | 562 kts | 99° |
| 2026-04-24 09:23 | 30.16476 | -96.67503 | 38828 ft | 561 kts | 99° |
| 2026-04-24 09:24 | 30.15144 | -96.58659 | 38831 ft | 561 kts | 99° |
| 2026-04-24 09:24 | 30.13801 | -96.49800 | 38836 ft | 561 kts | 99° |
| 2026-04-24 09:25 | 30.12452 | -96.40945 | 38836 ft | 560 kts | 98° |
| 2026-04-24 09:25 | 30.11096 | -96.32091 | 38825 ft | 560 kts | 99° |
| 2026-04-24 09:26 | 30.09742 | -96.23294 | 38833 ft | 559 kts | 99° |
| 2026-04-24 09:26 | 30.08376 | -96.14449 | 38819 ft | 559 kts | 99° |
| 2026-04-24 09:27 | 30.07000 | -96.05598 | 38832 ft | 559 kts | 99° |
| 2026-04-24 09:27 | 30.05625 | -95.96765 | 38829 ft | 560 kts | 98° |
| 2026-04-24 09:28 | 30.04251 | -95.87982 | 38840 ft | 559 kts | 99° |
| 2026-04-24 09:28 | 30.02862 | -95.79165 | 38839 ft | 559 kts | 98° |
| 2026-04-24 09:29 | 30.01461 | -95.70328 | 38841 ft | 558 kts | 98° |
| 2026-04-24 09:29 | 30.00068 | -95.61540 | 38855 ft | 558 kts | 99° |
| 2026-04-24 09:30 | 29.98664 | -95.52721 | 38850 ft | 558 kts | 98° |
| 2026-04-24 09:30 | 29.97256 | -95.43936 | 38854 ft | 558 kts | 98° |
| 2026-04-24 09:31 | 29.95844 | -95.35163 | 38848 ft | 558 kts | 98° |
| 2026-04-24 09:31 | 29.94657 | -95.26334 | 38857 ft | 556 kts | 96° |
| 2026-04-24 09:32 | 29.93527 | -95.17520 | 38854 ft | 556 kts | 96° |
| 2026-04-24 09:32 | 29.92387 | -95.08738 | 38858 ft | 556 kts | 97° |
| 2026-04-24 09:33 | 29.91250 | -94.99967 | 38858 ft | 556 kts | 96° |
| 2026-04-24 09:33 | 29.90091 | -94.91156 | 38850 ft | 556 kts | 96° |
| 2026-04-24 09:34 | 29.88932 | -94.82349 | 38856 ft | 555 kts | 96° |
| 2026-04-24 09:34 | 29.87772 | -94.73602 | 38853 ft | 555 kts | 96° |
| 2026-04-24 09:35 | 29.86592 | -94.64774 | 38857 ft | 556 kts | 96° |
| 2026-04-24 09:35 | 29.85421 | -94.56033 | 38861 ft | 556 kts | 96° |
| 2026-04-24 09:36 | 29.84237 | -94.47257 | 38853 ft | 555 kts | 96° |
| 2026-04-24 09:36 | 29.83043 | -94.38459 | 38861 ft | 556 kts | 96° |
| 2026-04-24 09:37 | 29.81851 | -94.29700 | 38862 ft | 556 kts | 97° |
| 2026-04-24 09:37 | 29.80650 | -94.20940 | 38870 ft | 555 kts | 96° |
| 2026-04-24 09:38 | 29.79440 | -94.12149 | 38863 ft | 556 kts | 96° |
| 2026-04-24 09:38 | 29.78225 | -94.03374 | 38877 ft | 556 kts | 96° |
| 2026-04-24 09:39 | 29.77004 | -93.94585 | 38875 ft | 556 kts | 96° |
| 2026-04-24 09:39 | 29.75779 | -93.85828 | 38861 ft | 555 kts | 96° |
| 2026-04-24 09:40 | 29.74551 | -93.77088 | 38879 ft | 555 kts | 96° |
| 2026-04-24 09:40 | 29.73315 | -93.68334 | 38878 ft | 555 kts | 96° |
| 2026-04-24 09:41 | 29.72082 | -93.59643 | 38880 ft | 554 kts | 95° |
| 2026-04-24 09:41 | 29.70836 | -93.50909 | 38874 ft | 555 kts | 95° |
| 2026-04-24 09:42 | 29.69585 | -93.42176 | 38882 ft | 555 kts | 96° |
| 2026-04-24 09:42 | 29.68326 | -93.33434 | 38876 ft | 554 kts | 96° |
| 2026-04-24 09:43 | 29.67063 | -93.24703 | 38886 ft | 554 kts | 96° |
| 2026-04-24 09:43 | 29.65798 | -93.16012 | 38911 ft | 554 kts | 96° |
| 2026-04-24 09:44 | 29.64520 | -93.07261 | 38879 ft | 554 kts | 96° |
| 2026-04-24 09:44 | 29.63248 | -92.98589 | 38890 ft | 554 kts | 96° |
| 2026-04-24 09:45 | 29.61962 | -92.89867 | 38895 ft | 554 kts | 96° |
| 2026-04-24 09:45 | 29.60674 | -92.81165 | 38890 ft | 553 kts | 96° |
| 2026-04-24 09:46 | 29.59390 | -92.72531 | 38898 ft | 552 kts | 95° |
| 2026-04-24 09:46 | 29.58090 | -92.63839 | 38891 ft | 551 kts | 96° |
| 2026-04-24 09:47 | 29.56796 | -92.55220 | 38891 ft | 551 kts | 95° |
| 2026-04-24 09:47 | 29.55491 | -92.46566 | 38888 ft | 551 kts | 96° |
| 2026-04-24 09:48 | 29.54182 | -92.37912 | 38861 ft | 550 kts | 96° |
| 2026-04-24 09:48 | 29.52865 | -92.29274 | 38897 ft | 549 kts | 96° |
| 2026-04-24 09:49 | 29.51551 | -92.20693 | 38894 ft | 548 kts | 96° |
| 2026-04-24 09:49 | 29.50232 | -92.12102 | 38899 ft | 548 kts | 96° |
| 2026-04-24 09:50 | 29.48910 | -92.03539 | 38897 ft | 546 kts | 96° |
| 2026-04-24 09:50 | 29.47584 | -91.94987 | 38900 ft | 546 kts | 96° |
| 2026-04-24 09:51 | 29.46260 | -91.86465 | 38908 ft | 546 kts | 96° |
| 2026-04-24 09:51 | 29.44923 | -91.77919 | 38903 ft | 546 kts | 96° |
| 2026-04-24 09:52 | 29.43577 | -91.69356 | 38905 ft | 544 kts | 95° |
| 2026-04-24 09:52 | 29.42239 | -91.60863 | 38905 ft | 544 kts | 96° |
| 2026-04-24 09:53 | 29.40890 | -91.52345 | 38908 ft | 543 kts | 95° |
| 2026-04-24 09:53 | 29.39533 | -91.43817 | 38909 ft | 542 kts | 95° |
| 2026-04-24 09:54 | 29.38179 | -91.35339 | 38913 ft | 541 kts | 95° |
| 2026-04-24 09:54 | 29.36817 | -91.26879 | 38914 ft | 540 kts | 96° |
| 2026-04-24 09:55 | 29.35458 | -91.18429 | 38917 ft | 540 kts | 96° |
| 2026-04-24 09:55 | 29.34100 | -91.10027 | 38911 ft | 540 kts | 96° |
| 2026-04-24 09:56 | 29.32719 | -91.01530 | 38921 ft | 540 kts | 96° |
| 2026-04-24 09:56 | 29.31341 | -90.93082 | 38915 ft | 539 kts | 96° |
| 2026-04-24 09:57 | 29.29956 | -90.84629 | 38905 ft | 538 kts | 96° |
| 2026-04-24 09:57 | 29.28580 | -90.76247 | 38906 ft | 539 kts | 96° |
| 2026-04-24 09:58 | 29.27187 | -90.67816 | 38905 ft | 539 kts | 96° |
| 2026-04-24 09:58 | 29.25798 | -90.59445 | 38910 ft | 539 kts | 95° |
| 2026-04-24 09:59 | 29.24393 | -90.50997 | 38904 ft | 538 kts | 95° |
| 2026-04-24 09:59 | 29.22990 | -90.42610 | 38904 ft | 537 kts | 96° |
| 2026-04-24 10:00 | 29.21592 | -90.34287 | 38909 ft | 536 kts | 96° |
| 2026-04-24 10:00 | 29.20182 | -90.25909 | 38917 ft | 536 kts | 96° |
| 2026-04-24 10:01 | 29.18772 | -90.17566 | 38914 ft | 535 kts | 96° |
| 2026-04-24 10:01 | 29.17333 | -90.09229 | 38911 ft | 537 kts | 97° |
| 2026-04-24 10:02 | 29.15618 | -90.00903 | 38914 ft | 538 kts | 98° |
| 2026-04-24 10:02 | 29.13939 | -89.92597 | 38918 ft | 538 kts | 98° |
| 2026-04-24 10:03 | 29.12244 | -89.84335 | 38926 ft | 537 kts | 98° |
| 2026-04-24 10:03 | 29.10540 | -89.76046 | 38928 ft | 536 kts | 97° |
| 2026-04-24 10:04 | 29.08844 | -89.67788 | 38922 ft | 535 kts | 98° |
| 2026-04-24 10:04 | 29.07135 | -89.59528 | 38922 ft | 535 kts | 98° |
| 2026-04-24 10:05 | 29.05424 | -89.51273 | 38916 ft | 535 kts | 98° |
| 2026-04-24 10:05 | 29.03713 | -89.43045 | 38923 ft | 534 kts | 98° |
| 2026-04-24 10:06 | 29.01138 | -89.30721 | 38914 ft | 533 kts | 98° |
| 2026-04-24 10:07 | 28.99416 | -89.22506 | 38927 ft | 533 kts | 98° |
| 2026-04-24 10:07 | 28.97696 | -89.14323 | 38932 ft | 533 kts | 98° |
| 2026-04-24 10:08 | 28.95955 | -89.06074 | 38924 ft | 533 kts | 98° |
| 2026-04-24 10:08 | 28.94223 | -88.97892 | 38932 ft | 533 kts | 98° |
| 2026-04-24 10:09 | 28.92485 | -88.89711 | 38925 ft | 532 kts | 98° |
| 2026-04-24 10:09 | 28.90742 | -88.81524 | 38933 ft | 532 kts | 98° |
| 2026-04-24 10:10 | 28.88997 | -88.73360 | 38938 ft | 531 kts | 98° |
| 2026-04-24 10:10 | 28.86989 | -88.65230 | 38940 ft | 534 kts | 103° |
| 2026-04-24 10:11 | 28.84738 | -88.57197 | 38931 ft | 533 kts | 102° |
| 2026-04-24 10:11 | 28.82527 | -88.49202 | 38933 ft | 532 kts | 102° |
| 2026-04-24 10:12 | 28.80281 | -88.41167 | 38928 ft | 532 kts | 102° |
| 2026-04-24 10:12 | 28.78055 | -88.33174 | 38929 ft | 531 kts | 103° |
| 2026-04-24 10:13 | 28.75813 | -88.25159 | 38938 ft | 531 kts | 103° |
| 2026-04-24 10:13 | 28.73578 | -88.17189 | 38930 ft | 530 kts | 103° |
| 2026-04-24 10:14 | 28.71340 | -88.09226 | 38932 ft | 529 kts | 103° |
| 2026-04-24 10:14 | 28.69086 | -88.01230 | 38930 ft | 529 kts | 103° |
| 2026-04-24 10:15 | 28.66839 | -87.93278 | 38934 ft | 529 kts | 103° |
| 2026-04-24 10:15 | 28.64591 | -87.85341 | 38941 ft | 528 kts | 103° |
| 2026-04-24 10:16 | 28.62339 | -87.77404 | 38935 ft | 528 kts | 103° |
| 2026-04-24 10:16 | 28.60095 | -87.69518 | 38948 ft | 527 kts | 103° |
| 2026-04-24 10:17 | 28.57828 | -87.61577 | 38943 ft | 526 kts | 103° |
| 2026-04-24 10:17 | 28.55588 | -87.53739 | 38953 ft | 525 kts | 103° |
| 2026-04-24 10:18 | 28.53328 | -87.45853 | 38948 ft | 525 kts | 103° |
| 2026-04-24 10:18 | 28.51062 | -87.37968 | 38962 ft | 524 kts | 103° |
| 2026-04-24 10:19 | 28.48804 | -87.30125 | 38951 ft | 524 kts | 104° |
| 2026-04-24 10:19 | 28.46530 | -87.22246 | 38957 ft | 523 kts | 103° |
| 2026-04-24 10:20 | 28.44267 | -87.14426 | 38956 ft | 524 kts | 104° |
| 2026-04-24 10:20 | 28.42001 | -87.06617 | 38961 ft | 523 kts | 103° |
| 2026-04-24 10:21 | 28.39726 | -86.98792 | 38953 ft | 523 kts | 104° |
| 2026-04-24 10:21 | 28.37445 | -86.90969 | 38953 ft | 523 kts | 103° |
| 2026-04-24 10:22 | 28.35159 | -86.83144 | 38955 ft | 523 kts | 103° |
| 2026-04-24 10:22 | 28.32871 | -86.75331 | 38969 ft | 522 kts | 104° |
| 2026-04-24 10:23 | 28.30580 | -86.67517 | 38963 ft | 522 kts | 104° |
| 2026-04-24 10:23 | 28.28319 | -86.59744 | 38959 ft | 521 kts | 104° |
| 2026-04-24 10:24 | 28.26031 | -86.51916 | 38959 ft | 521 kts | 104° |
| 2026-04-24 10:24 | 28.23758 | -86.44171 | 38963 ft | 520 kts | 104° |
| 2026-04-24 10:25 | 28.21487 | -86.36430 | 38957 ft | 519 kts | 104° |
| 2026-04-24 10:25 | 28.19196 | -86.28650 | 38961 ft | 518 kts | 105° |
| 2026-04-24 10:26 | 28.16931 | -86.20978 | 38965 ft | 518 kts | 105° |
| 2026-04-24 10:26 | 28.14647 | -86.13254 | 38977 ft | 517 kts | 104° |
| 2026-04-24 10:27 | 28.12370 | -86.05571 | 38972 ft | 515 kts | 104° |
| 2026-04-24 10:27 | 28.10095 | -85.97918 | 38970 ft | 514 kts | 104° |
| 2026-04-24 10:28 | 28.07822 | -85.90279 | 38973 ft | 514 kts | 105° |
| 2026-04-24 10:28 | 28.05539 | -85.82626 | 38979 ft | 514 kts | 105° |
| 2026-04-24 10:29 | 28.03245 | -85.74964 | 38979 ft | 512 kts | 105° |
| 2026-04-24 10:29 | 28.00959 | -85.67342 | 38973 ft | 511 kts | 105° |
| 2026-04-24 10:30 | 27.98689 | -85.59783 | 38974 ft | 510 kts | 105° |
| 2026-04-24 10:30 | 27.96407 | -85.52203 | 38971 ft | 509 kts | 105° |
| 2026-04-24 10:31 | 27.94128 | -85.44660 | 38972 ft | 507 kts | 105° |
| 2026-04-24 10:31 | 27.91854 | -85.37141 | 38970 ft | 505 kts | 106° |
| 2026-04-24 10:32 | 27.89593 | -85.29679 | 38972 ft | 505 kts | 106° |
| 2026-04-24 10:32 | 27.87520 | -85.22137 | 38969 ft | 502 kts | 101° |
| 2026-04-24 10:33 | 27.85838 | -85.14490 | 38971 ft | 502 kts | 101° |
| 2026-04-24 10:33 | 27.84092 | -85.06828 | 38973 ft | 500 kts | 101° |
| 2026-04-24 10:34 | 27.82390 | -84.99265 | 38975 ft | 497 kts | 101° |
| 2026-04-24 10:34 | 27.80734 | -84.91987 | 38969 ft | 496 kts | 102° |
| 2026-04-24 10:35 | 27.79017 | -84.84469 | 38980 ft | 495 kts | 102° |
| 2026-04-24 10:35 | 27.77291 | -84.76920 | 38975 ft | 495 kts | 102° |
| 2026-04-24 10:36 | 27.75576 | -84.69441 | 38976 ft | 495 kts | 102° |
| 2026-04-24 10:36 | 27.73845 | -84.61919 | 38979 ft | 495 kts | 102° |
| 2026-04-24 10:37 | 27.72113 | -84.54423 | 38989 ft | 494 kts | 102° |
| 2026-04-24 10:37 | 27.70382 | -84.46943 | 38988 ft | 493 kts | 103° |
| 2026-04-24 10:38 | 27.68651 | -84.39477 | 38995 ft | 493 kts | 103° |
| 2026-04-24 10:38 | 27.66907 | -84.31986 | 38989 ft | 492 kts | 103° |
| 2026-04-24 10:39 | 27.65173 | -84.24558 | 38991 ft | 491 kts | 103° |
| 2026-04-24 10:39 | 27.63436 | -84.17134 | 38993 ft | 491 kts | 103° |
| 2026-04-24 10:40 | 27.61691 | -84.09689 | 38993 ft | 490 kts | 103° |
| 2026-04-24 10:40 | 27.59961 | -84.02330 | 38994 ft | 488 kts | 103° |
| 2026-04-24 10:41 | 27.58221 | -83.94952 | 38991 ft | 487 kts | 103° |
| 2026-04-24 10:41 | 27.56477 | -83.87573 | 38994 ft | 487 kts | 103° |
| 2026-04-24 10:42 | 27.54741 | -83.80245 | 38997 ft | 488 kts | 104° |
| 2026-04-24 10:42 | 27.52993 | -83.72888 | 39003 ft | 487 kts | 104° |
| 2026-04-24 10:43 | 27.51244 | -83.65546 | 38930 ft | 486 kts | 104° |
| 2026-04-24 10:43 | 27.50372 | -83.61892 | 38335 ft | 482 kts | 103° |
| 2026-04-24 10:43 | 27.49507 | -83.58276 | 37697 ft | 478 kts | 103° |
| 2026-04-24 10:43 | 27.48649 | -83.54689 | 37115 ft | 474 kts | 104° |
| 2026-04-24 10:44 | 27.47800 | -83.51146 | 36572 ft | 469 kts | 104° |
| 2026-04-24 10:44 | 27.46958 | -83.47635 | 36000 ft | 466 kts | 104° |
| 2026-04-24 10:44 | 27.46117 | -83.44127 | 35376 ft | 464 kts | 104° |
| 2026-04-24 10:44 | 27.45279 | -83.40642 | 34791 ft | 461 kts | 104° |
| 2026-04-24 10:45 | 27.44347 | -83.37225 | 34153 ft | 459 kts | 109° |
| 2026-04-24 10:45 | 27.43038 | -83.33968 | 33584 ft | 456 kts | 118° |
| 2026-04-24 10:45 | 27.41344 | -83.30953 | 32945 ft | 455 kts | 124° |
| 2026-04-24 10:45 | 27.39573 | -83.28027 | 32341 ft | 453 kts | 123° |
| 2026-04-24 10:46 | 27.37840 | -83.25092 | 31770 ft | 450 kts | 123° |
| 2026-04-24 10:46 | 27.36117 | -83.22160 | 31145 ft | 448 kts | 123° |
| 2026-04-24 10:46 | 27.34392 | -83.19250 | 30575 ft | 447 kts | 123° |
| 2026-04-24 10:46 | 27.32672 | -83.16365 | 29975 ft | 451 kts | 123° |
| 2026-04-24 10:47 | 27.30916 | -83.13415 | 29377 ft | 453 kts | 123° |
| 2026-04-24 10:47 | 27.29172 | -83.10477 | 28775 ft | 454 kts | 122° |
| 2026-04-24 10:47 | 27.27429 | -83.07539 | 28175 ft | 456 kts | 123° |
| 2026-04-24 10:47 | 27.25667 | -83.04574 | 27570 ft | 457 kts | 123° |
| 2026-04-24 10:48 | 27.23901 | -83.01611 | 26965 ft | 458 kts | 123° |
| 2026-04-24 10:48 | 27.22140 | -82.98662 | 26367 ft | 458 kts | 123° |
| 2026-04-24 10:48 | 27.20364 | -82.95689 | 25746 ft | 455 kts | 123° |
| 2026-04-24 10:48 | 27.18609 | -82.92749 | 25153 ft | 450 kts | 123° |
| 2026-04-24 10:49 | 27.16880 | -82.89853 | 24556 ft | 446 kts | 123° |
| 2026-04-24 10:49 | 27.15172 | -82.86993 | 23976 ft | 442 kts | 123° |
| 2026-04-24 10:49 | 27.13290 | -82.84235 | 23398 ft | 436 kts | 135° |
| 2026-04-24 10:49 | 27.10942 | -82.82124 | 22817 ft | 432 kts | 147° |
| 2026-04-24 10:50 | 27.08464 | -82.80250 | 22219 ft | 428 kts | 147° |
| 2026-04-24 10:50 | 27.06033 | -82.78361 | 21678 ft | 424 kts | 146° |
| 2026-04-24 10:50 | 27.03651 | -82.76493 | 21100 ft | 421 kts | 146° |
| 2026-04-24 10:50 | 27.01238 | -82.74617 | 20552 ft | 417 kts | 146° |
| 2026-04-24 10:51 | 26.98876 | -82.72794 | 19991 ft | 413 kts | 146° |
| 2026-04-24 10:51 | 26.96523 | -82.70976 | 19448 ft | 409 kts | 146° |
| 2026-04-24 10:51 | 26.94187 | -82.69147 | 18893 ft | 405 kts | 144° |
| 2026-04-24 10:51 | 26.92096 | -82.67086 | 18377 ft | 402 kts | 136° |
| 2026-04-24 10:52 | 26.90085 | -82.64925 | 17841 ft | 399 kts | 137° |
| 2026-04-24 10:52 | 26.88058 | -82.62807 | 17320 ft | 396 kts | 138° |
| 2026-04-24 10:52 | 26.86056 | -82.60730 | 16794 ft | 391 kts | 138° |
| 2026-04-24 10:52 | 26.84083 | -82.58668 | 16280 ft | 387 kts | 137° |
| 2026-04-24 10:53 | 26.82109 | -82.56593 | 15769 ft | 383 kts | 138° |
| 2026-04-24 10:53 | 26.80200 | -82.54595 | 15267 ft | 380 kts | 138° |
| 2026-04-24 10:53 | 26.78280 | -82.52595 | 14765 ft | 375 kts | 138° |
| 2026-04-24 10:53 | 26.76358 | -82.50595 | 14266 ft | 372 kts | 138° |
| 2026-04-24 10:54 | 26.74484 | -82.48644 | 13781 ft | 369 kts | 138° |
| 2026-04-24 10:54 | 26.72620 | -82.46700 | 13295 ft | 364 kts | 138° |
| 2026-04-24 10:54 | 26.70787 | -82.44788 | 12814 ft | 356 kts | 138° |
| 2026-04-24 10:54 | 26.68990 | -82.42915 | 12350 ft | 348 kts | 138° |
| 2026-04-24 10:55 | 26.67229 | -82.41084 | 11888 ft | 341 kts | 138° |
| 2026-04-24 10:55 | 26.65516 | -82.39305 | 11442 ft | 335 kts | 138° |
| 2026-04-24 10:55 | 26.63816 | -82.37560 | 11077 ft | 325 kts | 141° |
| 2026-04-24 10:55 | 26.61999 | -82.36144 | 10992 ft | 309 kts | 149° |
| 2026-04-24 10:56 | 26.60184 | -82.34870 | 10926 ft | 305 kts | 149° |
| 2026-04-24 10:56 | 26.58395 | -82.33566 | 10664 ft | 303 kts | 148° |
| 2026-04-24 10:56 | 26.56652 | -82.32285 | 10391 ft | 299 kts | 148° |
| 2026-04-24 10:56 | 26.54931 | -82.31038 | 10122 ft | 296 kts | 148° |
| 2026-04-24 10:57 | 26.53177 | -82.29777 | 9845 ft | 295 kts | 148° |
| 2026-04-24 10:57 | 26.51466 | -82.28542 | 9573 ft | 295 kts | 148° |
| 2026-04-24 10:57 | 26.49725 | -82.27276 | 9298 ft | 294 kts | 148° |
| 2026-04-24 10:57 | 26.48024 | -82.26038 | 9022 ft | 292 kts | 148° |
| 2026-04-24 10:58 | 26.46327 | -82.24808 | 8755 ft | 290 kts | 148° |
| 2026-04-24 10:58 | 26.44622 | -82.23576 | 8466 ft | 288 kts | 148° |
| 2026-04-24 10:58 | 26.42943 | -82.22365 | 8195 ft | 286 kts | 148° |
| 2026-04-24 10:58 | 26.41282 | -82.21165 | 7923 ft | 285 kts | 147° |
| 2026-04-24 10:59 | 26.39608 | -82.19953 | 7649 ft | 283 kts | 148° |
| 2026-04-24 10:59 | 26.37957 | -82.18757 | 7370 ft | 281 kts | 147° |
| 2026-04-24 10:59 | 26.36339 | -82.17585 | 7103 ft | 279 kts | 147° |
| 2026-04-24 10:59 | 26.34705 | -82.16405 | 6860 ft | 276 kts | 147° |
| 2026-04-24 11:00 | 26.33104 | -82.15250 | 6621 ft | 275 kts | 147° |
| 2026-04-24 11:00 | 26.31496 | -82.14091 | 6393 ft | 272 kts | 147° |
| 2026-04-24 11:00 | 26.29902 | -82.12941 | 6158 ft | 271 kts | 147° |
| 2026-04-24 11:00 | 26.28314 | -82.11795 | 5936 ft | 269 kts | 147° |
| 2026-04-24 11:01 | 26.26738 | -82.10656 | 5715 ft | 269 kts | 147° |
| 2026-04-24 11:01 | 26.25162 | -82.09518 | 5490 ft | 268 kts | 146° |
| 2026-04-24 11:01 | 26.23596 | -82.08388 | 5267 ft | 267 kts | 146° |
| 2026-04-24 11:01 | 26.22038 | -82.07265 | 5036 ft | 266 kts | 146° |
| 2026-04-24 11:02 | 26.20505 | -82.06162 | 4829 ft | 257 kts | 146° |
| 2026-04-24 11:02 | 26.19025 | -82.05100 | 4627 ft | 246 kts | 146° |
| 2026-04-24 11:02 | 26.17617 | -82.04089 | 4425 ft | 237 kts | 146° |
| 2026-04-24 11:02 | 26.16252 | -82.03106 | 4231 ft | 228 kts | 146° |
| 2026-04-24 11:03 | 26.14934 | -82.02156 | 4036 ft | 224 kts | 146° |
| 2026-04-24 11:03 | 26.13646 | -82.01228 | 3854 ft | 215 kts | 146° |
| 2026-04-24 11:03 | 26.12400 | -82.00331 | 3680 ft | 208 kts | 146° |
| 2026-04-24 11:03 | 26.11210 | -81.99477 | 3504 ft | 202 kts | 146° |
| 2026-04-24 11:04 | 26.10035 | -81.98634 | 3339 ft | 200 kts | 146° |
| 2026-04-24 11:04 | 26.08855 | -81.97785 | 3158 ft | 201 kts | 146° |
| 2026-04-24 11:04 | 26.07724 | -81.96883 | 2994 ft | 199 kts | 132° |
| 2026-04-24 11:04 | 26.07152 | -81.95504 | 2822 ft | 198 kts | 102° |
| 2026-04-24 11:05 | 26.06927 | -81.94001 | 2748 ft | 197 kts | 100° |
| 2026-04-24 11:05 | 26.06718 | -81.92532 | 2576 ft | 187 kts | 100° |
| 2026-04-24 11:05 | 26.06503 | -81.91151 | 2405 ft | 177 kts | 101° |
| 2026-04-24 11:05 | 26.06288 | -81.89797 | 2255 ft | 176 kts | 98° |
| 2026-04-24 11:06 | 26.06281 | -81.88488 | 2101 ft | 164 kts | 84° |
| 2026-04-24 11:06 | 26.06597 | -81.87312 | 2035 ft | 156 kts | 69° |
| 2026-04-24 11:06 | 26.07155 | -81.86242 | 1878 ft | 162 kts | 57° |
| 2026-04-24 11:06 | 26.07919 | -81.85336 | 1771 ft | 158 kts | 45° |
| 2026-04-24 11:07 | 26.09508 | -81.83778 | 1552 ft | 143 kts | 49° |
| 2026-04-24 11:07 | 26.10204 | -81.82993 | 1382 ft | 141 kts | 49° |
| 2026-04-24 11:07 | 26.10899 | -81.82242 | 1244 ft | 137 kts | 47° |
| 2026-04-24 11:08 | 26.11580 | -81.81531 | 1039 ft | 131 kts | 46° |
| 2026-04-24 11:08 | 26.12221 | -81.80837 | 827 ft | 127 kts | 47° |
| 2026-04-24 11:08 | 26.12851 | -81.80152 | 641 ft | 126 kts | 46° |
| 2026-04-24 11:08 | 26.13487 | -81.79472 | 461 ft | 125 kts | 45° |
| 2026-04-24 11:09 | 26.14118 | -81.78798 | 247 ft | 125 kts | 46° |
| 2026-04-24 11:09 | 26.14740 | -81.78119 | 37 ft | 124 kts | 44° |
| 2026-04-24 11:09 | 26.15298 | -81.77517 | 8 ft | 93 kts | 44° |
| 2026-04-24 11:09 | 26.15615 | -81.77174 | 8 ft | 38 kts | 44° |
| 2026-04-24 11:10 | 26.15689 | -81.77065 | 10 ft | 9 kts | 128° |
| 2026-04-24 11:10 | 26.15631 | -81.77028 | 10 ft | 9 kts | 179° |
| 2026-04-24 11:10 | 26.15559 | -81.77066 | 10 ft | 14 kts | 225° |
| 2026-04-24 11:10 | 26.15496 | -81.77133 | 8 ft | 13 kts | 224° |
| 2026-04-24 11:11 | 26.15418 | -81.77218 | 8 ft | 12 kts | 224° |
| 2026-04-24 11:11 | 26.15346 | -81.77296 | 8 ft | 16 kts | 224° |
| 2026-04-24 11:11 | 26.15255 | -81.77394 | 8 ft | 17 kts | 224° |
| 2026-04-24 11:11 | 26.15177 | -81.77477 | 8 ft | 8 kts | 218° |
| 2026-04-24 11:12 | 26.15108 | -81.77483 | 8 ft | 12 kts | 179° |
| 2026-04-24 11:12 | 26.15035 | -81.77483 | 8 ft | 4 kts | 179° |
| 2026-04-24 11:12 | 26.14986 | -81.77481 | 8 ft | 9 kts | 179° |
| 2026-04-24 11:12 | 26.14943 | -81.77488 | 8 ft | 5 kts | 233° |
| 2026-04-24 11:13 | 26.14925 | -81.77518 | 8 ft | 3 kts | 218° |
| 2026-04-24 11:13 | 26.14909 | -81.77535 | 8 ft | 0 kts | 229° |